Terminal Aerodrome Forecast
Issued by NWS

Home | Current Version | Previous Version | Text Only | Print | Product List | Glossary On
Versions: 1 2 3 4 5 6 7 8 9 10 11 12 13 14 15 16 17 18
000
FTUS45 KPIH 012300
TAFSUN
TAF
KSUN 012320Z 0200/0224 15008KT P6SM -SHRA VCTS SCT080CB BKN120
      TEMPO 0200/0201 VRB10G20KT P6SM -TSRA SCT070CB BKN110
     FM020300 31008KT P6SM SCT120
     FM021700 15006KT P6SM VCTS SCT080CB BKN120
      AMD LTD TO CLD VIS AND WIND 0205/0213=

USA.gov is the U.S. government's official web portal to all federal, state and local government web resources and services.